Mckinley Sea — WDE5024 — position and weather

sailwx.info

Track history (hours):
 
Tides and Currents Weather Stations Pressure Air Temp Water Temp Dewpoint Dewpoint Depression Visibility Wind Speed Wind Dir Waves Ship Positions

Mckinley Sea

Owner: Kirby Offshore Marine, LLC, Staten Island, NY. More information available from US FCC via Universal Licensing System and Coast Guard Vessel Documentation Center.

Last reported at 2014-Oct-30 17:33 UTC. Time now 2014-Oct-30 18:23 UTC.
Position N 40°39' W 074°10'.

Length 46 m; draft 7 m.

Type: Towing. MMSI: 367360980.

Date/timePositionNaut miles runAvg speedWind from/ knotsBaromVisibWave heightAir tempDewpointWater temp
2014-Oct-30 17:33N 40°39' W 074°10'0 0.0
2014-Oct-30 16:33N 40°39' W 074°10'3 2.5
2014-Oct-30 15:33N 40°39' W 074°07'0 0.0
2014-Oct-30 14:33N 40°39' W 074°07'0 0.0
2014-Oct-30 13:33N 40°39' W 074°07'0 0.0
2014-Oct-30 12:33N 40°39' W 074°07'0 0.0
2014-Oct-30 11:33N 40°39' W 074°07'0 0.0
2014-Oct-30 10:33N 40°39' W 074°07'0 0.0
2014-Oct-30 09:33N 40°39' W 074°07'0 0.0
2014-Oct-30 08:33N 40°39' W 074°07'0 0.0
2014-Oct-30 07:33N 40°39' W 074°07'0 0.0
2014-Oct-30 06:33N 40°39' W 074°07'0 0.0
2014-Oct-30 05:33N 40°39' W 074°07'0 0.0
2014-Oct-30 04:33N 40°39' W 074°07'0 0.0
2014-Oct-30 03:33N 40°39' W 074°07'0 0.0
2014-Oct-30 02:33N 40°39' W 074°07'0 0.0
2014-Oct-30 01:33N 40°39' W 074°07'0 0.0
2014-Oct-30 00:33N 40°39' W 074°07'0 0.0
2014-Oct-29 23:33N 40°39' W 074°07'0 0.3
2014-Oct-29 22:29N 40°39' W 074°06'1 1.0
2014-Oct-29 21:33N 40°39' W 074°05'0 0.0
2014-Oct-29 20:33N 40°39' W 074°05'0 0.0
2014-Oct-29 19:33N 40°39' W 074°05'0 0.0
2014-Oct-29 18:33N 40°39' W 074°05'0 0.0
2014-Oct-29 17:33N 40°39' W 074°05'0 0.1
2014-Oct-29 16:34N 40°39' W 074°05'4 3.2
2014-Oct-29 15:24N 40°38' W 074°10'0 0.0
2014-Oct-29 12:19N 40°38' W 074°10'0 0.0
2014-Oct-29 11:33N 40°38' W 074°10'4 3.7
2014-Oct-29 10:33N 40°39' W 074°05'0 0.0
2014-Oct-29 09:33N 40°39' W 074°05'0 0.0
2014-Oct-29 08:33N 40°39' W 074°05'0 0.0
2014-Oct-29 07:33N 40°39' W 074°05'0 0.0
2014-Oct-29 06:33N 40°39' W 074°05'0 0.0
2014-Oct-29 05:33N 40°39' W 074°05'0 0.0
2014-Oct-29 04:33N 40°39' W 074°05'0 0.0
2014-Oct-29 03:33N 40°39' W 074°05'0 0.0
2014-Oct-29 02:33N 40°39' W 074°05'0 0.0
2014-Oct-29 01:33N 40°39' W 074°05'0 0.0
2014-Oct-29 00:33N 40°39' W 074°05'0 0.0
2014-Oct-28 23:33N 40°39' W 074°05'0 0.0
2014-Oct-28 22:33N 40°39' W 074°05'0 0.0
2014-Oct-28 21:33N 40°39' W 074°05'0 0.0
2014-Oct-28 20:33N 40°39' W 074°05'0 0.0
2014-Oct-28 19:33N 40°39' W 074°05'0 0.0
2014-Oct-28 18:33N 40°39' W 074°05'0 0.0
2014-Oct-28 17:33N 40°39' W 074°05'0 0.0
2014-Oct-28 16:33N 40°39' W 074°05'2 2.0
2014-Oct-28 15:33N 40°39' W 074°02'0 0.0
2014-Oct-28 14:33N 40°39' W 074°03'6 5.7
2014-Oct-28 13:33N 40°39' W 074°10'1 1.5
2014-Oct-28 12:33N 40°39' W 074°08'1 1.1
2014-Oct-28 11:33N 40°39' W 074°07'0 0.3
2014-Oct-28 10:33N 40°39' W 074°06'3 2.9
2014-Oct-28 09:33N 40°39' W 074°03'0 0.0
2014-Oct-28 08:33N 40°39' W 074°03'0 0.0
2014-Oct-28 07:33N 40°39' W 074°03'0 0.0
2014-Oct-28 06:33N 40°39' W 074°03'0 0.1
2014-Oct-28 05:33N 40°39' W 074°02'0 0.4
2014-Oct-28 04:33N 40°39' W 074°03'8 7.7
2014-Oct-28 03:33N 40°32' W 074°01'9 8.9
2014-Oct-28 02:32N 40°30' W 073°49'22 9.0
2014-Oct-28 00:05N 40°33' W 073°21'7 9.2
2014-Oct-27 23:21N 40°35' W 073°12'7 9.1
2014-Oct-27 22:32N 40°37' W 073°03'27 9.1
2014-Oct-27 19:33N 40°47' W 072°30'9 8.7
2014-Oct-27 18:33N 40°50' W 072°19'8 8.5
2014-Oct-27 17:33N 40°54' W 072°09'8 8.3
2014-Oct-27 16:33N 40°57' W 071°59'8 7.9
2014-Oct-27 15:33N 41°01' W 071°49'8 7.9
2014-Oct-27 14:33N 41°04' W 071°40'8 8.0
2014-Oct-27 13:33N 41°07' W 071°30'8 8.0
2014-Oct-27 12:33N 41°13' W 071°23'9 9.0
2014-Oct-27 11:33N 41°22' W 071°24'9 8.6
2014-Oct-27 10:33N 41°30' W 071°21'9 8.8
2014-Oct-27 09:33N 41°39' W 071°19'8 8.3
2014-Oct-27 08:33N 41°47' W 071°22'2 0.5
2014-Oct-27 05:31N 41°48' W 071°24'0 0.0
2014-Oct-27 04:13N 41°48' W 071°24'0 0.0
2014-Oct-26 12:20N 41°48' W 071°24'0 0.0
2014-Oct-26 11:12N 41°48' W 071°24'0 0.0
2014-Oct-26 10:03N 41°48' W 071°24'0 0.0
2014-Oct-26 09:07N 41°48' W 071°24'0 0.0
2014-Oct-26 08:32N 41°48' W 071°24'0 0.0
2014-Oct-26 07:12N 41°48' W 071°24'0 0.0
2014-Oct-26 04:33N 41°48' W 071°24'1 1.4
2014-Oct-26 03:32N 41°47' W 071°22'6 6.2
2014-Oct-26 02:33N 41°42' W 071°19'8 7.5
2014-Oct-26 01:33N 41°34' W 071°19'8 7.9
2014-Oct-26 00:33N 41°27' W 071°23'8 8.0
2014-Oct-25 23:33N 41°19' W 071°21'8 7.8
2014-Oct-25 22:33N 41°11' W 071°22'8 7.7
2014-Oct-25 21:33N 41°07' W 071°30'8 7.9
2014-Oct-25 20:33N 41°04' W 071°40'7 7.3
2014-Oct-25 19:33N 41°01' W 071°49'8 7.5
2014-Oct-25 18:33N 40°58' W 071°58'8 8.0
2014-Oct-25 17:33N 40°54' W 072°08'8 8.1
2014-Oct-25 16:33N 40°51' W 072°17'8 8.3
2014-Oct-25 15:33N 40°47' W 072°27'8 8.2
2014-Oct-25 14:33N 40°45' W 072°38'8 8.2
2014-Oct-25 13:33N 40°42' W 072°48'8 8.0
2014-Oct-25 12:33N 40°39' W 072°58'8 7.9
2014-Oct-25 11:33N 40°36' W 073°07'8 7.8
2014-Oct-25 10:33N 40°34' W 073°17'8 7.6
2014-Oct-25 09:33N 40°32' W 073°27'8 7.5
2014-Oct-25 08:33N 40°31' W 073°37'8 7.8
2014-Oct-25 07:33N 40°30' W 073°47'8 8.1
2014-Oct-25 06:32N 40°30' W 073°58'9 8.8
2014-Oct-25 05:33N 40°38' W 074°03'5 5.5
2014-Oct-25 04:33N 40°39' W 074°10'6 1.4
2014-Oct-25 00:16N 40°33' W 074°14'0 0.1
2014-Oct-24 23:30N 40°33' W 074°14'0 0.0
2014-Oct-24 22:30N 40°33' W 074°14'0 0.0
2014-Oct-24 20:24N 40°33' W 074°14'0 0.0
2014-Oct-24 18:25N 40°33' W 074°14'0 0.0
2014-Oct-24 14:27N 40°33' W 074°14'0 0.0
2014-Oct-24 12:20N 40°33' W 074°14'0 0.0
2014-Oct-24 10:05N 40°33' W 074°14'0 0.0
2014-Oct-24 05:22N 40°33' W 074°14'0 0.0
2014-Oct-24 03:04N 40°33' W 074°14'0 0.0
2014-Oct-23 23:07N 40°33' W 074°14'0 0.0
2014-Oct-23 22:16N 40°33' W 074°14'5 4.6
2014-Oct-23 21:09N 40°38' W 074°12'2 0.5
2014-Oct-23 18:09N 40°38' W 074°10'0 0.0
2014-Oct-23 17:14N 40°38' W 074°10'2 0.1
2014-Oct-23 06:17N 40°38' W 074°12'6 8.0
2014-Oct-23 05:33N 40°39' W 074°04'32 9.4
2014-Oct-23 02:07N 40°58' W 073°30'6 9.9
2014-Oct-23 01:33N 41°01' W 073°23'2110.0
2014-Oct-22 23:26N 41°10' W 072°58'8 7.7
2014-Oct-22 22:24N 41°17' W 072°55'0 0.1
2014-Oct-22 14:33N 41°17' W 072°55'4 4.3
2014-Oct-22 13:33N 41°13' W 072°56'0 0.1
2014-Oct-22 12:33N 41°13' W 072°56'0 0.0
2014-Oct-22 11:33N 41°13' W 072°56'0 0.0
2014-Oct-22 10:33N 41°13' W 072°56'0 0.1
2014-Oct-22 09:32N 41°13' W 072°56'0 0.1
2014-Oct-22 08:33N 41°13' W 072°56'0 0.0
2014-Oct-22 07:33N 41°13' W 072°56'0 0.0
2014-Oct-22 06:33N 41°13' W 072°56'3 3.5
2014-Oct-22 05:33N 41°12' W 072°51'8 8.3
2014-Oct-22 04:33N 41°11' W 072°40'8 8.2
2014-Oct-22 03:33N 41°10' W 072°29'9 8.9
2014-Oct-22 02:33N 41°12' W 072°18'1010.1
2014-Oct-22 01:33N 41°14' W 072°05'1010.3
2014-Oct-22 00:33N 41°16' W 071°51'10 9.8
2014-Oct-21 23:33N 41°17' W 071°38'9 8.7
2014-Oct-21 22:33N 41°20' W 071°27'9 8.6
2014-Oct-21 21:33N 41°28' W 071°22'8 8.0
2014-Oct-21 20:33N 41°35' W 071°18'8 7.6
2014-Oct-21 19:33N 41°43' W 071°20'6 1.0
2014-Oct-21 13:32N 41°48' W 071°24'0 0.0
2014-Oct-21 12:33N 41°48' W 071°24'2 1.6
2014-Oct-21 11:33N 41°47' W 071°22'0 0.0
2014-Oct-21 10:33N 41°47' W 071°22'0 0.0
2014-Oct-21 09:33N 41°47' W 071°22'0 0.0
2014-Oct-21 08:33N 41°47' W 071°22'0 0.0
2014-Oct-21 07:33N 41°47' W 071°22'0 0.0
2014-Oct-21 06:33N 41°47' W 071°22'0 0.0
2014-Oct-21 05:33N 41°47' W 071°22'0 0.0
2014-Oct-21 04:33N 41°47' W 071°22'0 0.0
2014-Oct-21 03:33N 41°47' W 071°22'0 0.0
2014-Oct-21 02:33N 41°47' W 071°22'0 0.0
2014-Oct-21 01:33N 41°47' W 071°22'0 0.0
2014-Oct-21 00:33N 41°47' W 071°22'0 0.0
2014-Oct-20 23:33N 41°47' W 071°22'0 0.0
2014-Oct-20 22:32N 41°47' W 071°22'0 0.0
2014-Oct-20 21:31N 41°47' W 071°22'0 0.0
2014-Oct-20 20:33N 41°47' W 071°22'0 0.0
2014-Oct-20 19:29N 41°47' W 071°22'0 0.0
2014-Oct-20 18:33N 41°47' W 071°22'  
Track history (hours):
 
Tides and Currents Weather Stations Pressure Air Temp Water Temp Dewpoint Dewpoint Depression Visibility Wind Speed Wind Dir Waves Ship Positions

Mckinley Sea

Owner: Kirby Offshore Marine, LLC, Staten Island, NY. More information available from US FCC via Universal Licensing System and Coast Guard Vessel Documentation Center.

Last reported at 2014-Oct-30 17:33 UTC. Time now 2014-Oct-30 18:23 UTC.
Position N 40°39' W 074°10'.

Length 46 m; draft 7 m.

Type: Towing. MMSI: 367360980.

Date/timePositionNaut miles runAvg speedWind from/ knotsBaromVisibWave heightAir tempDewpointWater temp
2014-Oct-30 17:33N 40°39' W 074°10'0 0.0
2014-Oct-30 16:33N 40°39' W 074°10'3 2.5
2014-Oct-30 15:33N 40°39' W 074°07'0 0.0
2014-Oct-30 14:33N 40°39' W 074°07'0 0.0
2014-Oct-30 13:33N 40°39' W 074°07'0 0.0
2014-Oct-30 12:33N 40°39' W 074°07'0 0.0
2014-Oct-30 11:33N 40°39' W 074°07'0 0.0
2014-Oct-30 10:33N 40°39' W 074°07'0 0.0
2014-Oct-30 09:33N 40°39' W 074°07'0 0.0
2014-Oct-30 08:33N 40°39' W 074°07'0 0.0
2014-Oct-30 07:33N 40°39' W 074°07'0 0.0
2014-Oct-30 06:33N 40°39' W 074°07'0 0.0
2014-Oct-30 05:33N 40°39' W 074°07'0 0.0
2014-Oct-30 04:33N 40°39' W 074°07'0 0.0
2014-Oct-30 03:33N 40°39' W 074°07'0 0.0
2014-Oct-30 02:33N 40°39' W 074°07'0 0.0
2014-Oct-30 01:33N 40°39' W 074°07'0 0.0
2014-Oct-30 00:33N 40°39' W 074°07'0 0.0
2014-Oct-29 23:33N 40°39' W 074°07'0 0.3
2014-Oct-29 22:29N 40°39' W 074°06'1 1.0
2014-Oct-29 21:33N 40°39' W 074°05'0 0.0
2014-Oct-29 20:33N 40°39' W 074°05'0 0.0
2014-Oct-29 19:33N 40°39' W 074°05'0 0.0
2014-Oct-29 18:33N 40°39' W 074°05'0 0.0
2014-Oct-29 17:33N 40°39' W 074°05'0 0.1
2014-Oct-29 16:34N 40°39' W 074°05'4 3.2
2014-Oct-29 15:24N 40°38' W 074°10'0 0.0
2014-Oct-29 12:19N 40°38' W 074°10'0 0.0
2014-Oct-29 11:33N 40°38' W 074°10'4 3.7
2014-Oct-29 10:33N 40°39' W 074°05'0 0.0
2014-Oct-29 09:33N 40°39' W 074°05'0 0.0
2014-Oct-29 08:33N 40°39' W 074°05'0 0.0
2014-Oct-29 07:33N 40°39' W 074°05'0 0.0
2014-Oct-29 06:33N 40°39' W 074°05'0 0.0
2014-Oct-29 05:33N 40°39' W 074°05'0 0.0
2014-Oct-29 04:33N 40°39' W 074°05'0 0.0
2014-Oct-29 03:33N 40°39' W 074°05'0 0.0
2014-Oct-29 02:33N 40°39' W 074°05'0 0.0
2014-Oct-29 01:33N 40°39' W 074°05'0 0.0
2014-Oct-29 00:33N 40°39' W 074°05'0 0.0
2014-Oct-28 23:33N 40°39' W 074°05'0 0.0
2014-Oct-28 22:33N 40°39' W 074°05'0 0.0
2014-Oct-28 21:33N 40°39' W 074°05'0 0.0
2014-Oct-28 20:33N 40°39' W 074°05'0 0.0
2014-Oct-28 19:33N 40°39' W 074°05'0 0.0
2014-Oct-28 18:33N 40°39' W 074°05'0 0.0
2014-Oct-28 17:33N 40°39' W 074°05'0 0.0
2014-Oct-28 16:33N 40°39' W 074°05'2 2.0
2014-Oct-28 15:33N 40°39' W 074°02'0 0.0
2014-Oct-28 14:33N 40°39' W 074°03'6 5.7
2014-Oct-28 13:33N 40°39' W 074°10'1 1.5
2014-Oct-28 12:33N 40°39' W 074°08'1 1.1
2014-Oct-28 11:33N 40°39' W 074°07'0 0.3
2014-Oct-28 10:33N 40°39' W 074°06'3 2.9
2014-Oct-28 09:33N 40°39' W 074°03'0 0.0
2014-Oct-28 08:33N 40°39' W 074°03'0 0.0
2014-Oct-28 07:33N 40°39' W 074°03'0 0.0
2014-Oct-28 06:33N 40°39' W 074°03'0 0.1
2014-Oct-28 05:33N 40°39' W 074°02'0 0.4
2014-Oct-28 04:33N 40°39' W 074°03'8 7.7
2014-Oct-28 03:33N 40°32' W 074°01'9 8.9
2014-Oct-28 02:32N 40°30' W 073°49'22 9.0
2014-Oct-28 00:05N 40°33' W 073°21'7 9.2
2014-Oct-27 23:21N 40°35' W 073°12'7 9.1
2014-Oct-27 22:32N 40°37' W 073°03'27 9.1
2014-Oct-27 19:33N 40°47' W 072°30'9 8.7
2014-Oct-27 18:33N 40°50' W 072°19'8 8.5
2014-Oct-27 17:33N 40°54' W 072°09'8 8.3
2014-Oct-27 16:33N 40°57' W 071°59'8 7.9
2014-Oct-27 15:33N 41°01' W 071°49'8 7.9
2014-Oct-27 14:33N 41°04' W 071°40'8 8.0
2014-Oct-27 13:33N 41°07' W 071°30'8 8.0
2014-Oct-27 12:33N 41°13' W 071°23'9 9.0
2014-Oct-27 11:33N 41°22' W 071°24'9 8.6
2014-Oct-27 10:33N 41°30' W 071°21'9 8.8
2014-Oct-27 09:33N 41°39' W 071°19'8 8.3
2014-Oct-27 08:33N 41°47' W 071°22'2 0.5
2014-Oct-27 05:31N 41°48' W 071°24'0 0.0
2014-Oct-27 04:13N 41°48' W 071°24'0 0.0
2014-Oct-26 12:20N 41°48' W 071°24'0 0.0
2014-Oct-26 11:12N 41°48' W 071°24'0 0.0
2014-Oct-26 10:03N 41°48' W 071°24'0 0.0
2014-Oct-26 09:07N 41°48' W 071°24'0 0.0
2014-Oct-26 08:32N 41°48' W 071°24'0 0.0
2014-Oct-26 07:12N 41°48' W 071°24'0 0.0
2014-Oct-26 04:33N 41°48' W 071°24'1 1.4
2014-Oct-26 03:32N 41°47' W 071°22'6 6.2
2014-Oct-26 02:33N 41°42' W 071°19'8 7.5
2014-Oct-26 01:33N 41°34' W 071°19'8 7.9
2014-Oct-26 00:33N 41°27' W 071°23'8 8.0
2014-Oct-25 23:33N 41°19' W 071°21'8 7.8
2014-Oct-25 22:33N 41°11' W 071°22'8 7.7
2014-Oct-25 21:33N 41°07' W 071°30'8 7.9
2014-Oct-25 20:33N 41°04' W 071°40'7 7.3
2014-Oct-25 19:33N 41°01' W 071°49'8 7.5
2014-Oct-25 18:33N 40°58' W 071°58'8 8.0
2014-Oct-25 17:33N 40°54' W 072°08'8 8.1
2014-Oct-25 16:33N 40°51' W 072°17'8 8.3
2014-Oct-25 15:33N 40°47' W 072°27'8 8.2
2014-Oct-25 14:33N 40°45' W 072°38'8 8.2
2014-Oct-25 13:33N 40°42' W 072°48'8 8.0
2014-Oct-25 12:33N 40°39' W 072°58'8 7.9
2014-Oct-25 11:33N 40°36' W 073°07'8 7.8
2014-Oct-25 10:33N 40°34' W 073°17'8 7.6
2014-Oct-25 09:33N 40°32' W 073°27'8 7.5
2014-Oct-25 08:33N 40°31' W 073°37'8 7.8
2014-Oct-25 07:33N 40°30' W 073°47'8 8.1
2014-Oct-25 06:32N 40°30' W 073°58'9 8.8
2014-Oct-25 05:33N 40°38' W 074°03'5 5.5
2014-Oct-25 04:33N 40°39' W 074°10'6 1.4
2014-Oct-25 00:16N 40°33' W 074°14'0 0.1
2014-Oct-24 23:30N 40°33' W 074°14'0 0.0
2014-Oct-24 22:30N 40°33' W 074°14'0 0.0
2014-Oct-24 20:24N 40°33' W 074°14'0 0.0
2014-Oct-24 18:25N 40°33' W 074°14'0 0.0
2014-Oct-24 14:27N 40°33' W 074°14'0 0.0
2014-Oct-24 12:20N 40°33' W 074°14'0 0.0
2014-Oct-24 10:05N 40°33' W 074°14'0 0.0
2014-Oct-24 05:22N 40°33' W 074°14'0 0.0
2014-Oct-24 03:04N 40°33' W 074°14'0 0.0
2014-Oct-23 23:07N 40°33' W 074°14'0 0.0
2014-Oct-23 22:16N 40°33' W 074°14'5 4.6
2014-Oct-23 21:09N 40°38' W 074°12'2 0.5
2014-Oct-23 18:09N 40°38' W 074°10'0 0.0
2014-Oct-23 17:14N 40°38' W 074°10'2 0.1
2014-Oct-23 06:17N 40°38' W 074°12'6 8.0
2014-Oct-23 05:33N 40°39' W 074°04'32 9.4
2014-Oct-23 02:07N 40°58' W 073°30'6 9.9
2014-Oct-23 01:33N 41°01' W 073°23'2110.0
2014-Oct-22 23:26N 41°10' W 072°58'8 7.7
2014-Oct-22 22:24N 41°17' W 072°55'0 0.1
2014-Oct-22 14:33N 41°17' W 072°55'4 4.3
2014-Oct-22 13:33N 41°13' W 072°56'0 0.1
2014-Oct-22 12:33N 41°13' W 072°56'0 0.0
2014-Oct-22 11:33N 41°13' W 072°56'0 0.0
2014-Oct-22 10:33N 41°13' W 072°56'0 0.1
2014-Oct-22 09:32N 41°13' W 072°56'0 0.1
2014-Oct-22 08:33N 41°13' W 072°56'0 0.0
2014-Oct-22 07:33N 41°13' W 072°56'0 0.0
2014-Oct-22 06:33N 41°13' W 072°56'3 3.5
2014-Oct-22 05:33N 41°12' W 072°51'8 8.3
2014-Oct-22 04:33N 41°11' W 072°40'8 8.2
2014-Oct-22 03:33N 41°10' W 072°29'9 8.9
2014-Oct-22 02:33N 41°12' W 072°18'1010.1
2014-Oct-22 01:33N 41°14' W 072°05'1010.3
2014-Oct-22 00:33N 41°16' W 071°51'10 9.8
2014-Oct-21 23:33N 41°17' W 071°38'9 8.7
2014-Oct-21 22:33N 41°20' W 071°27'9 8.6
2014-Oct-21 21:33N 41°28' W 071°22'8 8.0
2014-Oct-21 20:33N 41°35' W 071°18'8 7.6
2014-Oct-21 19:33N 41°43' W 071°20'6 1.0
2014-Oct-21 13:32N 41°48' W 071°24'0 0.0
2014-Oct-21 12:33N 41°48' W 071°24'2 1.6
2014-Oct-21 11:33N 41°47' W 071°22'0 0.0
2014-Oct-21 10:33N 41°47' W 071°22'0 0.0
2014-Oct-21 09:33N 41°47' W 071°22'0 0.0
2014-Oct-21 08:33N 41°47' W 071°22'0 0.0
2014-Oct-21 07:33N 41°47' W 071°22'0 0.0
2014-Oct-21 06:33N 41°47' W 071°22'0 0.0
2014-Oct-21 05:33N 41°47' W 071°22'0 0.0
2014-Oct-21 04:33N 41°47' W 071°22'0 0.0
2014-Oct-21 03:33N 41°47' W 071°22'0 0.0
2014-Oct-21 02:33N 41°47' W 071°22'0 0.0
2014-Oct-21 01:33N 41°47' W 071°22'0 0.0
2014-Oct-21 00:33N 41°47' W 071°22'0 0.0
2014-Oct-20 23:33N 41°47' W 071°22'0 0.0
2014-Oct-20 22:32N 41°47' W 071°22'0 0.0
2014-Oct-20 21:31N 41°47' W 071°22'0 0.0
2014-Oct-20 20:33N 41°47' W 071°22'0 0.0
2014-Oct-20 19:29N 41°47' W 071°22'0 0.0
2014-Oct-20 18:33N 41°47' W 071°22'  

Dump ship's entire track history